Time;durP1;ratioP1;P1;durP2;ratioP2;P2;SDS_P1;SDS_P2;PMS_P1;PMS_P2;Temp;Humidity;BMP_temperature;BMP_pressure;BME280_temperature;BME280_humidity;BME280_pressure;Samples;Min_cycle;Max_cycle;Signal;HPM_P1;HPM_P2
2022/11/29 00:00:05;;;;;;;659.93;238.43;;;;;;;;;;4982790;28;20305;-54
2022/11/29 00:02:31;;;;;;;521.07;190.60;;;;;;;;;;4983302;28;20459;-54
2022/11/29 00:04:57;;;;;;;615.00;219.20;;;;;;;;;;5002672;28;20697;-54
2022/11/29 00:07:23;;;;;;;552.17;193.63;;;;;;;;;;5005460;28;20215;-54
2022/11/29 00:09:49;;;;;;;602.70;211.70;;;;;;;;;;5012983;28;20401;-55
2022/11/29 00:12:16;;;;;;;594.57;203.87;;;;;;;;;;5022578;28;20679;-55
2022/11/29 00:14:42;;;;;;;631.37;226.67;;;;;;;;;;4987888;28;20224;-54
2022/11/29 00:17:08;;;;;;;609.37;205.67;;;;;;;;;;4980638;28;20441;-55
2022/11/29 00:19:35;;;;;;;576.57;206.47;;;;;;;;;;4976029;28;20225;-54
2022/11/29 00:22:01;;;;;;;609.07;219.60;;;;;;;;;;4977158;28;20732;-55
2022/11/29 00:24:30;;;;;;;684.17;254.70;;;;;;;;;;4975553;28;20259;-55
2022/11/29 00:26:56;;;;;;;697.23;240.23;;;;;;;;;;4977213;28;22603;-54
2022/11/29 00:29:22;;;;;;;664.60;233.17;;;;;;;;;;4974263;28;20266;-54
2022/11/29 00:31:48;;;;;;;717.93;257.23;;;;;;;;;;4983292;28;20217;-55
2022/11/29 00:34:14;;;;;;;583.43;214.93;;;;;;;;;;4985667;28;20217;-55
2022/11/29 00:36:40;;;;;;;550.63;200.00;;;;;;;;;;4987486;28;20220;-55
2022/11/29 00:39:06;;;;;;;654.63;236.00;;;;;;;;;;4977232;28;20237;-55
2022/11/29 00:41:32;;;;;;;622.13;218.63;;;;;;;;;;4984288;28;20231;-54
2022/11/29 00:43:57;;;;;;;573.53;207.90;;;;;;;;;;4978493;28;20731;-55
2022/11/29 00:46:24;;;;;;;660.23;232.20;;;;;;;;;;4992401;28;20219;-55
2022/11/29 00:48:50;;;;;;;683.90;241.83;;;;;;;;;;5003645;28;20255;-55
2022/11/29 00:51:16;;;;;;;623.60;217.13;;;;;;;;;;5004442;28;20279;-55
2022/11/29 00:53:42;;;;;;;598.37;225.73;;;;;;;;;;4982229;28;20332;-55
2022/11/29 00:56:08;;;;;;;655.60;234.50;;;;;;;;;;4980811;28;20763;-55
2022/11/29 00:58:35;;;;;;;643.70;232.73;;;;;;;;;;4979756;28;20213;-55
2022/11/29 01:01:01;;;;;;;634.80;229.10;;;;;;;;;;4972271;28;20413;-55
2022/11/29 01:03:27;;;;;;;566.27;197.53;;;;;;;;;;4985248;28;20300;-55
2022/11/29 01:05:53;;;;;;;550.07;204.50;;;;;;;;;;4984416;28;20227;-55
2022/11/29 01:08:19;;;;;;;648.90;229.13;;;;;;;;;;4987582;28;20247;-55
2022/11/29 01:10:45;;;;;;;635.40;229.87;;;;;;;;;;4989986;28;20304;-54
2022/11/29 01:13:11;;;;;;;661.23;231.50;;;;;;;;;;4982457;28;20246;-54
2022/11/29 01:15:37;;;;;;;498.20;173.73;;;;;;;;;;4980312;28;20290;-55
2022/11/29 01:18:03;;;;;;;568.73;205.57;;;;;;;;;;4986380;28;20189;-55
2022/11/29 01:20:29;;;;;;;572.73;208.20;;;;;;;;;;4977108;28;20216;-55
2022/11/29 01:22:55;;;;;;;657.17;237.63;;;;;;;;;;4968338;28;21844;-55
2022/11/29 01:25:21;;;;;;;626.83;219.90;;;;;;;;;;4977487;28;20221;-55
2022/11/29 01:27:47;;;;;;;575.50;210.37;;;;;;;;;;4988805;28;20278;-55
2022/11/29 01:30:13;;;;;;;654.30;222.67;;;;;;;;;;4980776;28;20812;-54
2022/11/29 01:32:39;;;;;;;555.00;198.30;;;;;;;;;;4992576;28;20223;-55
2022/11/29 01:35:05;;;;;;;652.87;241.07;;;;;;;;;;4982997;28;20229;-55
2022/11/29 01:37:31;;;;;;;569.90;205.23;;;;;;;;;;4977918;28;20981;-55
2022/11/29 01:39:57;;;;;;;540.07;203.60;;;;;;;;;;4982603;28;20741;-55
2022/11/29 01:42:23;;;;;;;703.67;258.23;;;;;;;;;;4975107;28;20235;-55
2022/11/29 01:44:49;;;;;;;576.90;204.40;;;;;;;;;;4981094;28;20311;-55
2022/11/29 01:47:17;;;;;;;622.17;219.00;;;;;;;;;;4982627;28;20213;-55
2022/11/29 01:49:44;;;;;;;521.27;200.70;;;;;;;;;;4983128;28;20796;-55
2022/11/29 01:52:13;;;;;;;585.70;218.37;;;;;;;;;;4987736;28;20269;-55
2022/11/29 01:54:41;;;;;;;710.93;255.47;;;;;;;;;;4981046;28;20213;-55
2022/11/29 01:57:08;;;;;;;638.67;227.80;;;;;;;;;;4983460;28;20279;-55
2022/11/29 01:59:36;;;;;;;560.57;207.73;;;;;;;;;;4982605;28;20365;-55
2022/11/29 02:02:11;;;;;;;610.40;220.93;;;;;;;;;;4980102;28;20602;-55
2022/11/29 02:04:38;;;;;;;691.03;250.53;;;;;;;;;;4977157;28;20224;-55
2022/11/29 02:07:04;;;;;;;702.23;262.67;;;;;;;;;;4985061;28;20286;-55
2022/11/29 02:09:30;;;;;;;650.80;238.63;;;;;;;;;;4990103;28;20323;-55
2022/11/29 02:11:59;;;;;;;531.03;195.80;;;;;;;;;;5001564;28;20196;-55
2022/11/29 02:14:28;;;;;;;603.93;222.60;;;;;;;;;;4999876;28;20235;-55
2022/11/29 02:16:57;;;;;;;629.77;225.60;;;;;;;;;;4976503;28;20933;-55
2022/11/29 02:19:28;;;;;;;822.70;309.37;;;;;;;;;;4966560;28;20225;-54
2022/11/29 02:22:07;;;;;;;610.40;221.07;;;;;;;;;;4973074;28;20228;-55
2022/11/29 02:24:47;;;;;;;653.87;219.63;;;;;;;;;;4977735;28;20217;-55
2022/11/29 02:27:16;;;;;;;563.37;203.40;;;;;;;;;;4978853;28;20207;-55
2022/11/29 02:29:51;;;;;;;650.70;227.63;;;;;;;;;;5005770;28;20420;-55
2022/11/29 02:32:35;;;;;;;684.90;246.30;;;;;;;;;;5007707;28;20226;-55
2022/11/29 02:35:10;;;;;;;575.57;206.73;;;;;;;;;;5015220;28;20215;-55
2022/11/29 02:37:56;;;;;;;588.00;216.30;;;;;;;;;;4994829;28;20305;-55
2022/11/29 02:40:28;;;;;;;660.13;239.50;;;;;;;;;;4985632;28;20631;-55
2022/11/29 02:43:06;;;;;;;631.70;220.93;;;;;;;;;;4997662;28;20262;-55
2022/11/29 02:45:34;;;;;;;645.13;229.87;;;;;;;;;;4998198;28;20263;-55
2022/11/29 02:48:19;;;;;;;697.97;263.77;;;;;;;;;;4997119;28;20181;-55
2022/11/29 02:50:58;;;;;;;672.33;246.80;;;;;;;;;;4979040;28;20216;-55
2022/11/29 02:53:26;;;;;;;700.00;256.37;;;;;;;;;;5002623;28;20310;-55
2022/11/29 02:56:01;;;;;;;499.10;189.80;;;;;;;;;;5001625;28;20209;-55
2022/11/29 02:58:50;;;;;;;640.93;229.87;;;;;;;;;;4997143;28;20318;-55
2022/11/29 03:01:22;;;;;;;574.07;210.33;;;;;;;;;;4992939;28;20275;-55
2022/11/29 03:03:52;;;;;;;655.27;229.53;;;;;;;;;;4998184;28;20219;-54
2022/11/29 03:06:37;;;;;;;543.63;202.67;;;;;;;;;;5002534;28;20203;-55
2022/11/29 03:09:07;;;;;;;696.17;249.27;;;;;;;;;;4994866;28;20184;-55
2022/11/29 03:11:43;;;;;;;653.73;228.87;;;;;;;;;;5005665;28;20711;-55
2022/11/29 03:14:29;;;;;;;530.50;196.77;;;;;;;;;;5010022;28;20261;-55
2022/11/29 03:17:14;;;;;;;556.97;202.50;;;;;;;;;;4998587;28;20220;-54
2022/11/29 03:19:59;;;;;;;662.67;241.00;;;;;;;;;;5003478;28;20209;-55
2022/11/29 03:22:37;;;;;;;592.63;208.73;;;;;;;;;;5000450;28;20228;-55
2022/11/29 03:25:17;;;;;;;585.93;216.83;;;;;;;;;;4994297;28;20223;-55
2022/11/29 03:27:46;;;;;;;717.07;256.10;;;;;;;;;;5006955;28;20291;-55
2022/11/29 03:30:13;;;;;;;660.20;242.83;;;;;;;;;;4997055;28;20184;-54
2022/11/29 03:32:45;;;;;;;561.67;205.13;;;;;;;;;;5000875;28;20223;-55
2022/11/29 03:35:29;;;;;;;699.90;244.50;;;;;;;;;;4999761;28;21985;-55
2022/11/29 03:37:55;;;;;;;675.20;225.40;;;;;;;;;;5003993;28;20208;-55
2022/11/29 03:40:29;;;;;;;627.17;231.47;;;;;;;;;;4991842;28;20325;-55
2022/11/29 03:43:01;;;;;;;650.33;236.10;;;;;;;;;;4997780;28;20225;-55
2022/11/29 03:45:42;;;;;;;607.03;224.10;;;;;;;;;;4998935;28;20605;-55
2022/11/29 03:48:16;;;;;;;516.70;192.30;;;;;;;;;;5006992;28;20544;-54
2022/11/29 03:50:45;;;;;;;573.37;214.90;;;;;;;;;;4998182;28;20676;-55
2022/11/29 03:53:30;;;;;;;640.37;229.03;;;;;;;;;;5003136;28;21142;-55
2022/11/29 03:56:03;;;;;;;575.20;208.53;;;;;;;;;;4997008;28;20216;-55
2022/11/29 03:58:53;;;;;;;663.73;235.97;;;;;;;;;;4998472;28;20326;-55
2022/11/29 04:01:21;;;;;;;631.30;218.97;;;;;;;;;;5007401;28;20209;-55
2022/11/29 04:04:06;;;;;;;653.73;230.50;;;;;;;;;;4993940;28;20219;-55
2022/11/29 04:06:51;;;;;;;565.27;199.10;;;;;;;;;;4991396;28;20880;-55
2022/11/29 04:09:17;;;;;;;564.00;190.20;;;;;;;;;;4999798;28;20204;-55
2022/11/29 04:15:04;;;;;;;587.60;213.70;;;;;;;;;;4988663;28;20679;-56
2022/11/29 04:17:42;;;;;;;634.23;240.37;;;;;;;;;;4994572;28;20267;-56
2022/11/29 04:20:27;;;;;;;609.07;255.93;;;;;;;;;;4992781;28;20244;-56
2022/11/29 04:22:56;;;;;;;557.93;224.77;;;;;;;;;;4991974;28;20701;-56
2022/11/29 04:25:39;;;;;;;542.53;202.73;;;;;;;;;;4999586;28;20246;-56
2022/11/29 04:28:21;;;;;;;623.03;239.50;;;;;;;;;;4993503;28;20688;-56
2022/11/29 04:31:04;;;;;;;684.47;256.77;;;;;;;;;;4998757;28;20752;-56
2022/11/29 04:33:30;;;;;;;516.87;197.83;;;;;;;;;;5002443;28;20207;-56
2022/11/29 04:36:04;;;;;;;708.43;271.43;;;;;;;;;;4991815;28;20520;-56
2022/11/29 04:38:56;;;;;;;537.23;204.40;;;;;;;;;;4997933;28;20224;-56
2022/11/29 04:41:40;;;;;;;645.87;246.30;;;;;;;;;;4987556;28;20225;-56
2022/11/29 04:44:11;;;;;;;523.27;208.33;;;;;;;;;;4988341;28;20271;-56
2022/11/29 04:46:40;;;;;;;595.13;223.63;;;;;;;;;;4986694;28;20669;-56
2022/11/29 04:49:25;;;;;;;661.37;254.53;;;;;;;;;;4997850;28;20574;-56
2022/11/29 04:51:57;;;;;;;715.03;273.53;;;;;;;;;;4994904;28;20231;-56
2022/11/29 04:54:39;;;;;;;648.13;248.53;;;;;;;;;;4993717;28;20196;-56
2022/11/29 04:57:23;;;;;;;562.90;216.37;;;;;;;;;;4996563;28;20184;-56
2022/11/29 04:59:52;;;;;;;661.20;249.07;;;;;;;;;;4990481;28;20716;-56
2022/11/29 05:02:30;;;;;;;710.20;273.87;;;;;;;;;;4987809;28;20343;-56
2022/11/29 05:05:18;;;;;;;653.03;253.13;;;;;;;;;;4988242;28;20228;-56
2022/11/29 05:07:43;;;;;;;632.33;245.37;;;;;;;;;;4994297;28;20215;-56
2022/11/29 05:10:15;;;;;;;693.77;266.13;;;;;;;;;;5003886;28;20208;-56
2022/11/29 05:12:52;;;;;;;564.07;222.10;;;;;;;;;;4994663;28;20379;-56
2022/11/29 05:15:37;;;;;;;672.37;260.93;;;;;;;;;;4991020;28;20185;-56
2022/11/29 05:18:16;;;;;;;695.57;268.37;;;;;;;;;;4990656;28;20243;-56
2022/11/29 05:20:45;;;;;;;661.43;247.70;;;;;;;;;;4987873;28;20224;-56
2022/11/29 05:23:29;;;;;;;680.27;253.93;;;;;;;;;;4991472;28;20296;-56
2022/11/29 05:26:12;;;;;;;553.90;205.90;;;;;;;;;;4980050;28;20213;-56
2022/11/29 05:28:38;;;;;;;640.77;244.80;;;;;;;;;;4976413;28;20231;-56
2022/11/29 05:31:24;;;;;;;564.87;222.13;;;;;;;;;;4988463;28;20335;-56
2022/11/29 05:33:50;;;;;;;685.10;262.03;;;;;;;;;;4980668;28;20278;-56
2022/11/29 05:36:37;;;;;;;557.70;219.50;;;;;;;;;;4970704;28;20189;-56
2022/11/29 05:39:25;;;;;;;639.43;240.80;;;;;;;;;;4987940;28;20217;-56
2022/11/29 05:42:04;;;;;;;678.07;249.83;;;;;;;;;;4984504;28;20258;-56
2022/11/29 05:44:48;;;;;;;553.37;209.10;;;;;;;;;;4984715;28;21136;-56
2022/11/29 05:47:17;;;;;;;551.60;218.70;;;;;;;;;;4988844;28;20724;-56
2022/11/29 05:49:48;;;;;;;629.37;250.67;;;;;;;;;;4988353;28;20311;-56
2022/11/29 05:52:20;;;;;;;664.90;251.97;;;;;;;;;;4982655;28;20751;-56
2022/11/29 05:54:49;;;;;;;604.60;232.23;;;;;;;;;;4984992;28;20217;-56
2022/11/29 05:57:40;;;;;;;522.27;207.90;;;;;;;;;;4982658;28;20182;-56
2022/11/29 06:00:07;;;;;;;593.70;231.33;;;;;;;;;;4984425;28;20243;-56
2022/11/29 06:02:45;;;;;;;521.37;198.17;;;;;;;;;;4996096;28;20221;-56
2022/11/29 06:05:33;;;;;;;753.07;299.87;;;;;;;;;;4978326;28;20236;-56
2022/11/29 06:08:05;;;;;;;712.70;269.47;;;;;;;;;;4974209;28;20258;-56
2022/11/29 06:10:35;;;;;;;616.30;238.77;;;;;;;;;;4975899;28;20220;-56
2022/11/29 06:13:20;;;;;;;651.53;254.50;;;;;;;;;;4975032;28;20735;-56
2022/11/29 06:15:52;;;;;;;578.77;225.50;;;;;;;;;;4978868;28;20705;-57
2022/11/29 06:18:20;;;;;;;706.43;285.10;;;;;;;;;;4974249;28;20404;-56
2022/11/29 06:20:59;;;;;;;622.37;254.83;;;;;;;;;;4963331;28;20189;-57
2022/11/29 06:23:40;;;;;;;698.40;283.33;;;;;;;;;;4966288;28;20284;-57
2022/11/29 06:26:28;;;;;;;604.37;242.90;;;;;;;;;;4978825;28;20212;-57
2022/11/29 06:29:12;;;;;;;716.07;288.87;;;;;;;;;;4975528;28;20318;-56
2022/11/29 06:31:42;;;;;;;690.40;270.00;;;;;;;;;;4977696;28;20213;-57
2022/11/29 06:34:16;;;;;;;642.13;261.07;;;;;;;;;;4973172;28;21440;-56
2022/11/29 06:36:42;;;;;;;591.07;223.80;;;;;;;;;;4969704;28;20332;-58
2022/11/29 06:39:09;;;;;;;436.67;175.53;;;;;;;;;;4979550;28;20862;-58
2022/11/29 06:41:35;;;;;;;645.97;243.57;;;;;;;;;;4967467;28;20813;-58
2022/11/29 06:44:01;;;;;;;673.00;267.63;;;;;;;;;;4982325;28;20245;-57
2022/11/29 06:46:33;;;;;;;568.83;228.07;;;;;;;;;;4991370;28;20299;-56
2022/11/29 06:49:07;;;;;;;653.27;246.80;;;;;;;;;;4972572;28;20367;-56
2022/11/29 06:51:42;;;;;;;513.40;196.20;;;;;;;;;;4991223;28;20645;-55
2022/11/29 06:54:17;;;;;;;651.60;253.90;;;;;;;;;;4996051;28;20530;-54
2022/11/29 06:56:46;;;;;;;629.97;240.27;;;;;;;;;;4981641;28;20228;-53
2022/11/29 06:59:32;;;;;;;504.43;190.03;;;;;;;;;;4986181;28;20747;-54
2022/11/29 07:02:04;;;;;;;561.10;215.83;;;;;;;;;;4973322;28;20230;-53
2022/11/29 07:04:33;;;;;;;645.47;242.00;;;;;;;;;;4950470;28;20236;-54
2022/11/29 07:06:59;;;;;;;626.77;246.83;;;;;;;;;;4985899;28;20306;-55
2022/11/29 07:09:28;;;;;;;642.27;249.97;;;;;;;;;;4980629;28;20189;-55
2022/11/29 07:11:54;;;;;;;613.93;247.30;;;;;;;;;;4982029;28;20293;-55
2022/11/29 07:14:20;;;;;;;508.80;199.90;;;;;;;;;;4984600;28;20354;-55
2022/11/29 07:17:01;;;;;;;513.73;196.20;;;;;;;;;;4988306;28;20273;-55
2022/11/29 07:19:30;;;;;;;631.70;239.43;;;;;;;;;;4965247;28;20251;-55
2022/11/29 07:21:56;;;;;;;633.57;237.50;;;;;;;;;;4974280;28;20220;-55
2022/11/29 07:24:25;;;;;;;649.43;239.37;;;;;;;;;;4987655;28;20254;-55
2022/11/29 07:26:50;;;;;;;549.37;205.40;;;;;;;;;;4981443;28;20304;-55
2022/11/29 07:29:39;;;;;;;672.40;248.30;;;;;;;;;;4958730;28;20209;-55
2022/11/29 07:32:08;;;;;;;574.97;213.43;;;;;;;;;;4986868;28;20228;-55
2022/11/29 07:34:48;;;;;;;655.73;259.27;;;;;;;;;;4981413;28;20424;-52
2022/11/29 07:37:14;;;;;;;514.50;207.47;;;;;;;;;;4984056;28;20271;-52
2022/11/29 07:39:58;;;;;;;608.93;242.37;;;;;;;;;;4974243;28;20225;-52
2022/11/29 07:42:43;;;;;;;586.10;230.80;;;;;;;;;;4988432;28;20197;-51
2022/11/29 07:45:09;;;;;;;647.80;258.37;;;;;;;;;;4974939;28;21329;-54
2022/11/29 07:47:35;;;;;;;518.97;201.60;;;;;;;;;;4985032;28;20307;-54
2022/11/29 07:50:00;;;;;;;534.30;219.07;;;;;;;;;;4976152;28;20221;-53
2022/11/29 07:52:27;;;;;;;513.57;199.47;;;;;;;;;;4991342;28;20245;-53
2022/11/29 07:54:53;;;;;;;572.43;234.17;;;;;;;;;;4962389;28;20574;-53
2022/11/29 07:57:19;;;;;;;633.97;250.97;;;;;;;;;;4988524;28;20185;-53
2022/11/29 07:59:45;;;;;;;553.93;219.07;;;;;;;;;;4980577;28;20641;-53
2022/11/29 08:02:11;;;;;;;645.03;257.97;;;;;;;;;;4977773;28;20239;-54
2022/11/29 08:04:42;;;;;;;612.87;246.97;;;;;;;;;;4978728;28;20777;-53
2022/11/29 08:07:08;;;;;;;586.27;236.37;;;;;;;;;;4996547;28;20228;-54
2022/11/29 08:09:34;;;;;;;592.87;233.37;;;;;;;;;;4997103;28;20235;-54
2022/11/29 08:12:00;;;;;;;565.20;225.07;;;;;;;;;;4979738;28;20228;-53
2022/11/29 08:14:26;;;;;;;487.60;202.17;;;;;;;;;;4985370;28;20694;-54
2022/11/29 08:16:52;;;;;;;539.10;215.33;;;;;;;;;;4996009;28;20224;-53
2022/11/29 08:19:18;;;;;;;599.83;240.10;;;;;;;;;;4997119;28;20637;-54
2022/11/29 08:21:46;;;;;;;490.60;200.67;;;;;;;;;;4999178;28;20201;-53
2022/11/29 08:24:12;;;;;;;636.60;253.93;;;;;;;;;;4994271;28;20379;-54
2022/11/29 08:26:38;;;;;;;486.60;197.57;;;;;;;;;;4998107;28;20922;-53
2022/11/29 08:29:04;;;;;;;512.97;210.07;;;;;;;;;;4995476;28;20701;-54
2022/11/29 08:31:30;;;;;;;571.40;234.03;;;;;;;;;;4979606;28;20252;-54
2022/11/29 08:33:56;;;;;;;675.40;272.87;;;;;;;;;;4980396;28;20217;-54
2022/11/29 08:36:22;;;;;;;617.37;248.70;;;;;;;;;;4984393;28;20211;-53
2022/11/29 08:38:48;;;;;;;600.07;243.10;;;;;;;;;;4983850;28;20657;-54
2022/11/29 08:41:15;;;;;;;670.73;267.23;;;;;;;;;;4988125;28;20209;-52
2022/11/29 08:43:41;;;;;;;506.07;208.70;;;;;;;;;;4973383;28;20221;-53
2022/11/29 08:46:07;;;;;;;556.07;225.03;;;;;;;;;;4980839;28;20216;-54
2022/11/29 08:48:34;;;;;;;471.27;194.03;;;;;;;;;;4979859;28;20219;-54
2022/11/29 08:51:00;;;;;;;574.80;233.30;;;;;;;;;;4981238;28;20193;-53
2022/11/29 08:53:43;;;;;;;694.60;283.10;;;;;;;;;;4978069;28;20621;-54
2022/11/29 08:56:09;;;;;;;555.67;222.93;;;;;;;;;;4981208;28;20291;-53
2022/11/29 08:58:36;;;;;;;733.43;295.60;;;;;;;;;;4959105;28;20256;-54
2022/11/29 09:01:02;;;;;;;580.87;237.80;;;;;;;;;;4979948;28;20601;-53
2022/11/29 09:06:14;;;;;;;477.70;194.60;;;;;;;;;;4982172;28;20196;-55
2022/11/29 09:08:42;;;;;;;573.43;234.20;;;;;;;;;;4974762;28;20217;-55
2022/11/29 09:11:19;;;;;;;557.93;228.80;;;;;;;;;;4991245;28;20308;-56
2022/11/29 09:13:47;;;;;;;656.40;271.83;;;;;;;;;;4988789;28;20744;-52
2022/11/29 09:16:14;;;;;;;583.27;235.80;;;;;;;;;;4975422;28;20217;-53
2022/11/29 09:18:41;;;;;;;640.87;248.57;;;;;;;;;;4980218;28;21629;-53
2022/11/29 09:21:08;;;;;;;569.87;234.03;;;;;;;;;;4973988;28;20185;-54
2022/11/29 09:23:34;;;;;;;593.67;238.17;;;;;;;;;;4988590;28;20224;-54
2022/11/29 09:26:00;;;;;;;629.73;260.93;;;;;;;;;;4979820;28;20205;-54
2022/11/29 09:28:26;;;;;;;626.97;256.30;;;;;;;;;;4969240;28;20213;-54
2022/11/29 09:30:52;;;;;;;690.43;281.13;;;;;;;;;;4987440;28;20621;-53
2022/11/29 09:33:18;;;;;;;631.23;253.83;;;;;;;;;;4966553;28;20205;-54
2022/11/29 09:35:44;;;;;;;630.00;247.37;;;;;;;;;;4971890;28;20181;-53
2022/11/29 09:38:11;;;;;;;686.10;287.70;;;;;;;;;;4969108;28;20224;-54
2022/11/29 09:40:50;;;;;;;699.63;282.57;;;;;;;;;;4972617;28;20235;-53
2022/11/29 09:43:25;;;;;;;730.17;303.70;;;;;;;;;;4977760;28;20243;-55
2022/11/29 09:45:56;;;;;;;730.10;301.37;;;;;;;;;;4979199;28;20204;-54
2022/11/29 09:48:34;;;;;;;581.40;237.57;;;;;;;;;;4971731;28;20177;-54
2022/11/29 09:51:16;;;;;;;667.73;266.43;;;;;;;;;;4973683;28;20598;-54
2022/11/29 09:53:48;;;;;;;592.23;241.17;;;;;;;;;;4981403;28;20267;-54
2022/11/29 09:56:22;;;;;;;729.77;296.07;;;;;;;;;;4981440;28;20645;-54
2022/11/29 09:58:51;;;;;;;584.17;231.27;;;;;;;;;;4976562;28;20228;-54
2022/11/29 10:01:20;;;;;;;632.63;265.83;;;;;;;;;;4972039;28;20810;-55
2022/11/29 10:03:50;;;;;;;577.43;243.03;;;;;;;;;;4970175;28;20602;-54
2022/11/29 10:06:22;;;;;;;627.93;255.17;;;;;;;;;;4978159;28;20195;-54
2022/11/29 10:08:51;;;;;;;653.73;261.53;;;;;;;;;;4974069;28;20233;-54
2022/11/29 10:11:19;;;;;;;691.80;281.20;;;;;;;;;;4979586;28;20280;-54
2022/11/29 10:13:51;;;;;;;719.83;294.40;;;;;;;;;;4974177;28;20228;-54
2022/11/29 10:16:27;;;;;;;666.07;272.70;;;;;;;;;;4981278;28;20213;-54
2022/11/29 10:19:09;;;;;;;653.47;248.03;;;;;;;;;;4968474;28;21540;-53
2022/11/29 10:21:38;;;;;;;595.00;242.70;;;;;;;;;;4979548;28;20638;-54
2022/11/29 10:24:10;;;;;;;597.90;245.80;;;;;;;;;;4963203;28;20326;-54
2022/11/29 10:26:37;;;;;;;654.73;253.17;;;;;;;;;;4982275;28;20298;-54
2022/11/29 10:29:03;;;;;;;739.53;298.97;;;;;;;;;;4971947;28;20216;-54
2022/11/29 10:31:32;;;;;;;540.90;216.70;;;;;;;;;;4981494;28;20399;-55
2022/11/29 10:34:00;;;;;;;613.50;235.10;;;;;;;;;;4980030;28;20219;-54
2022/11/29 10:36:26;;;;;;;609.37;247.53;;;;;;;;;;4968470;28;20650;-54
2022/11/29 10:38:54;;;;;;;667.90;270.97;;;;;;;;;;4956696;28;20262;-54
2022/11/29 10:41:22;;;;;;;549.50;214.80;;;;;;;;;;4972445;28;20231;-54
2022/11/29 10:43:49;;;;;;;604.43;245.57;;;;;;;;;;4972575;28;20778;-54
2022/11/29 10:46:29;;;;;;;604.60;227.27;;;;;;;;;;4971751;28;20236;-55
2022/11/29 10:48:57;;;;;;;576.33;215.03;;;;;;;;;;4980986;28;20255;-54
2022/11/29 10:51:24;;;;;;;549.40;211.63;;;;;;;;;;4978460;28;20189;-54
2022/11/29 10:53:51;;;;;;;616.92;249.70;;;;;;;;;;4970481;28;20452;-53
2022/11/29 10:56:28;;;;;;;646.83;247.17;;;;;;;;;;4962090;28;20599;-53
2022/11/29 10:58:55;;;;;;;447.43;180.77;;;;;;;;;;4986841;28;20663;-54
2022/11/29 11:01:21;;;;;;;467.13;177.30;;;;;;;;;;4982433;28;20236;-54
2022/11/29 11:03:55;;;;;;;465.30;179.50;;;;;;;;;;4982017;28;20962;-54
2022/11/29 11:06:20;;;;;;;552.83;217.33;;;;;;;;;;4981132;28;20188;-55
2022/11/29 11:08:54;;;;;;;507.07;204.97;;;;;;;;;;4958777;28;20252;-54
2022/11/29 11:11:38;;;;;;;593.13;223.60;;;;;;;;;;4975956;28;20231;-53
2022/11/29 11:14:20;;;;;;;462.77;175.93;;;;;;;;;;4972902;28;20375;-53
2022/11/29 11:16:45;;;;;;;539.17;212.47;;;;;;;;;;4969278;28;21512;-53
2022/11/29 11:19:26;;;;;;;593.43;220.03;;;;;;;;;;4981160;28;20291;-54
2022/11/29 11:21:53;;;;;;;405.73;165.90;;;;;;;;;;4987555;28;20213;-54
2022/11/29 11:24:28;;;;;;;426.33;168.67;;;;;;;;;;4971571;28;20213;-54
2022/11/29 11:26:54;;;;;;;541.47;207.60;;;;;;;;;;4978626;28;20200;-54
2022/11/29 11:29:23;;;;;;;459.77;183.87;;;;;;;;;;4985887;28;20641;-53
2022/11/29 11:31:56;;;;;;;596.47;225.93;;;;;;;;;;4982234;28;20298;-54
2022/11/29 11:34:38;;;;;;;478.57;189.57;;;;;;;;;;4979677;28;20240;-54
2022/11/29 11:37:24;;;;;;;408.17;160.37;;;;;;;;;;4988949;28;20208;-54
2022/11/29 11:39:51;;;;;;;416.77;167.60;;;;;;;;;;4975792;28;21063;-53
2022/11/29 11:42:38;;;;;;;549.87;205.83;;;;;;;;;;4983992;28;20204;-54
2022/11/29 11:45:09;;;;;;;511.17;205.70;;;;;;;;;;4987060;28;20286;-53
2022/11/29 11:47:37;;;;;;;478.67;187.07;;;;;;;;;;4991852;28;20267;-53
2022/11/29 11:50:03;;;;;;;598.70;248.30;;;;;;;;;;4980746;28;20533;-53
2022/11/29 11:52:39;;;;;;;582.57;217.10;;;;;;;;;;4983426;28;20403;-54
2022/11/29 11:55:22;;;;;;;492.97;195.00;;;;;;;;;;4979916;28;20665;-53
2022/11/29 11:58:00;;;;;;;452.50;178.13;;;;;;;;;;4983041;28;20228;-52
2022/11/29 12:00:37;;;;;;;522.07;204.63;;;;;;;;;;4987561;28;20282;-52
2022/11/29 12:03:04;;;;;;;652.67;250.27;;;;;;;;;;4986242;28;20236;-53
2022/11/29 12:05:30;;;;;;;508.40;190.33;;;;;;;;;;4983460;28;20691;-53
2022/11/29 12:07:59;;;;;;;489.73;188.33;;;;;;;;;;4985278;28;20220;-54
2022/11/29 12:10:26;;;;;;;454.50;176.40;;;;;;;;;;4984897;28;20967;-52
2022/11/29 12:12:54;;;;;;;565.10;225.97;;;;;;;;;;4978773;28;20519;-53
2022/11/29 12:15:20;;;;;;;522.93;209.07;;;;;;;;;;4983117;28;20272;-53
2022/11/29 12:17:55;;;;;;;477.93;200.33;;;;;;;;;;4987151;28;20304;-53
2022/11/29 12:20:30;;;;;;;613.67;242.60;;;;;;;;;;4978019;28;20219;-53
2022/11/29 12:23:17;;;;;;;533.50;209.70;;;;;;;;;;4988622;28;20720;-53
2022/11/29 12:25:55;;;;;;;439.50;176.60;;;;;;;;;;4944326;28;20366;-53
2022/11/29 12:28:24;;;;;;;561.97;221.83;;;;;;;;;;4962884;28;20687;-53
2022/11/29 12:31:10;;;;;;;402.80;163.53;;;;;;;;;;4969665;28;20705;-53
2022/11/29 12:33:45;;;;;;;462.17;178.90;;;;;;;;;;4969660;28;20663;-54
2022/11/29 12:36:11;;;;;;;498.23;194.97;;;;;;;;;;4967104;28;20876;-54
2022/11/29 12:38:49;;;;;;;540.60;205.47;;;;;;;;;;4960709;28;20221;-54
2022/11/29 12:41:24;;;;;;;427.20;168.07;;;;;;;;;;4969509;28;20305;-53
2022/11/29 12:44:03;;;;;;;508.53;199.07;;;;;;;;;;4969256;28;20270;-54
2022/11/29 12:46:30;;;;;;;531.10;208.43;;;;;;;;;;4966407;28;20217;-53
2022/11/29 12:49:00;;;;;;;489.77;186.17;;;;;;;;;;4966868;28;20757;-53
2022/11/29 12:51:32;;;;;;;678.20;277.20;;;;;;;;;;4951032;28;21185;-54
2022/11/29 12:54:01;;;;;;;499.93;192.70;;;;;;;;;;4962230;28;20237;-53
2022/11/29 12:56:33;;;;;;;477.30;194.53;;;;;;;;;;4967129;28;20231;-54
2022/11/29 12:59:18;;;;;;;555.00;209.07;;;;;;;;;;4959924;28;21731;-54
2022/11/29 13:01:50;;;;;;;537.43;216.90;;;;;;;;;;4956870;28;20910;-54
2022/11/29 13:04:19;;;;;;;624.83;242.60;;;;;;;;;;4971485;28;20729;-53
2022/11/29 13:07:11;;;;;;;519.53;206.13;;;;;;;;;;4961146;28;20236;-54
2022/11/29 13:09:37;;;;;;;542.00;201.73;;;;;;;;;;4959187;28;20225;-54
2022/11/29 13:12:09;;;;;;;589.63;223.97;;;;;;;;;;4972990;28;20206;-53
2022/11/29 13:14:38;;;;;;;465.00;185.43;;;;;;;;;;4982509;28;20509;-54
2022/11/29 13:17:09;;;;;;;455.87;187.47;;;;;;;;;;4965420;28;20240;-53
2022/11/29 13:19:38;;;;;;;587.33;228.77;;;;;;;;;;4971428;28;20318;-54
2022/11/29 13:22:23;;;;;;;588.70;241.17;;;;;;;;;;4969951;28;20263;-53
2022/11/29 13:24:52;;;;;;;513.70;196.13;;;;;;;;;;4950618;28;21908;-53
2022/11/29 13:27:21;;;;;;;523.83;203.10;;;;;;;;;;4962268;28;20201;-54
2022/11/29 13:29:47;;;;;;;459.43;175.07;;;;;;;;;;4969590;28;20738;-53
2022/11/29 13:32:43;;;;;;;521.67;212.93;;;;;;;;;;4949211;28;20245;-53
2022/11/29 13:35:19;;;;;;;516.77;204.10;;;;;;;;;;4947246;28;20220;-53
2022/11/29 13:37:48;;;;;;;586.47;233.17;;;;;;;;;;4960467;28;20250;-52
2022/11/29 13:40:26;;;;;;;555.57;217.03;;;;;;;;;;4964497;28;22038;-54
2022/11/29 13:43:30;;;;;;;561.00;211.43;;;;;;;;;;4955417;28;20221;-53
2022/11/29 13:46:01;;;;;;;471.97;190.03;;;;;;;;;;4874838;29;20224;-54
2022/11/29 13:48:33;;;;;;;472.53;187.23;;;;;;;;;;4878686;28;20228;-54
2022/11/29 13:51:19;;;;;;;470.90;190.40;;;;;;;;;;4949018;28;20260;-53
2022/11/29 13:53:45;;;;;;;624.93;247.60;;;;;;;;;;4955847;28;20758;-54
2022/11/29 13:56:24;;;;;;;534.70;214.17;;;;;;;;;;4961097;28;20227;-53
2022/11/29 13:58:53;;;;;;;670.00;254.93;;;;;;;;;;4971484;28;20467;-53
2022/11/29 14:01:20;;;;;;;573.67;222.40;;;;;;;;;;4986219;28;20209;-54
2022/11/29 14:04:06;;;;;;;601.33;244.77;;;;;;;;;;4976768;28;20259;-54
2022/11/29 14:06:34;;;;;;;500.67;203.57;;;;;;;;;;4977954;28;21320;-53
2022/11/29 14:09:03;;;;;;;425.37;177.33;;;;;;;;;;4972635;28;20185;-53
2022/11/29 14:11:32;;;;;;;454.77;182.80;;;;;;;;;;4988457;28;20278;-52
2022/11/29 14:14:01;;;;;;;547.43;217.33;;;;;;;;;;4975560;28;20329;-53
2022/11/29 14:16:33;;;;;;;511.53;195.17;;;;;;;;;;4972792;28;20218;-53
2022/11/29 14:19:05;;;;;;;632.27;245.90;;;;;;;;;;4972388;28;21190;-53
2022/11/29 14:21:50;;;;;;;443.83;181.50;;;;;;;;;;4977055;28;20672;-53
2022/11/29 14:24:38;;;;;;;575.73;221.47;;;;;;;;;;4977827;28;21396;-54